Time;durP1;ratioP1;P1;durP2;ratioP2;P2;SDS_P1;SDS_P2;PMS_P1;PMS_P2;Temp;Humidity;BMP_temperature;BMP_pressure;BME280_temperature;BME280_humidity;BME280_pressure;Samples;Min_cycle;Max_cycle;Signal;HPM_P1;HPM_P2
2021/06/25 00:00:09;;;;;;;0.73;0.73;;;21.90;99.90;;;;;;6209661;23;20167;-78
2021/06/25 00:02:36;;;;;;;0.82;0.70;;;21.90;99.90;;;;;;6208768;23;20278;-78
2021/06/25 00:05:04;;;;;;;0.80;0.77;;;21.80;99.90;;;;;;6209087;23;20178;-78
2021/06/25 00:07:32;;;;;;;0.70;0.70;;;21.90;99.90;;;;;;6209527;23;20213;-77
2021/06/25 00:10:00;;;;;;;2.17;0.82;;;21.80;99.90;;;;;;6209650;23;20467;-79
2021/06/25 00:12:27;;;;;;;0.60;0.60;;;21.70;99.90;;;;;;6207990;23;20282;-78
2021/06/25 00:14:55;;;;;;;0.85;0.85;;;21.60;99.90;;;;;;6209887;23;20173;-78
2021/06/25 00:17:22;;;;;;;0.70;0.70;;;21.60;99.90;;;;;;6211811;23;20609;-78
2021/06/25 00:19:49;;;;;;;0.60;0.60;;;21.60;99.90;;;;;;6211304;23;20262;-77
2021/06/25 00:22:16;;;;;;;0.55;0.55;;;21.70;99.90;;;;;;6217781;23;20472;-78
2021/06/25 00:24:44;;;;;;;1.20;0.88;;;21.70;99.90;;;;;;6225437;23;20198;-78
2021/06/25 00:27:12;;;;;;;0.80;0.80;;;21.60;99.90;;;;;;6214170;23;20211;-77
2021/06/25 00:29:39;;;;;;;0.88;0.88;;;21.60;99.90;;;;;;6209798;23;20174;-77
2021/06/25 00:32:07;;;;;;;1.05;0.70;;;21.60;99.90;;;;;;6207416;23;20202;-78
2021/06/25 00:34:35;;;;;;;0.50;0.50;;;21.60;99.90;;;;;;6209036;23;20278;-76
2021/06/25 00:37:02;;;;;;;0.95;0.85;;;21.60;99.90;;;;;;6208069;23;20167;-77
2021/06/25 00:39:29;;;;;;;0.90;0.80;;;21.50;99.90;;;;;;6210889;23;20191;-78
2021/06/25 00:41:56;;;;;;;0.95;0.88;;;21.50;99.90;;;;;;6207265;23;20189;-77
2021/06/25 00:44:25;;;;;;;0.70;0.60;;;21.50;99.90;;;;;;6210522;23;20167;-78
2021/06/25 00:46:52;;;;;;;1.10;0.85;;;21.50;99.90;;;;;;6211895;23;20730;-78
2021/06/25 00:49:20;;;;;;;0.80;0.80;;;21.50;99.90;;;;;;6209896;23;20277;-78
2021/06/25 00:51:47;;;;;;;0.75;0.75;;;21.50;99.90;;;;;;6211114;23;20167;-77
2021/06/25 00:54:15;;;;;;;1.20;0.82;;;21.40;99.90;;;;;;6210957;23;20785;-78
2021/06/25 00:56:43;;;;;;;2.50;1.05;;;21.50;99.90;;;;;;6209551;23;20170;-78
2021/06/25 00:59:10;;;;;;;0.70;0.70;;;21.50;99.90;;;;;;6209202;23;20206;-77
2021/06/25 01:01:38;;;;;;;1.20;0.85;;;21.50;99.90;;;;;;6211720;23;20493;-78
2021/06/25 01:04:06;;;;;;;0.77;0.75;;;21.40;99.90;;;;;;6210601;23;20195;-78
2021/06/25 01:06:33;;;;;;;1.17;0.88;;;21.40;99.90;;;;;;6211383;23;20499;-78
2021/06/25 01:09:01;;;;;;;1.15;1.00;;;21.30;99.90;;;;;;6228417;23;20254;-78
2021/06/25 01:11:30;;;;;;;0.75;0.75;;;21.30;99.90;;;;;;6220043;23;20943;-78
2021/06/25 01:13:58;;;;;;;1.08;0.60;;;21.20;99.90;;;;;;6215624;23;20199;-79
2021/06/25 01:16:26;;;;;;;3.03;0.75;;;21.20;99.90;;;;;;6223891;23;20633;-78
2021/06/25 01:18:54;;;;;;;1.95;0.80;;;21.20;99.90;;;;;;6210355;23;20203;-77
2021/06/25 01:21:23;;;;;;;0.80;0.80;;;21.20;99.90;;;;;;6210951;23;20887;-78
2021/06/25 01:23:50;;;;;;;0.55;0.55;;;21.20;99.90;;;;;;6211388;23;20195;-78
2021/06/25 01:26:17;;;;;;;0.93;0.80;;;21.20;99.90;;;;;;6211903;23;20197;-78
2021/06/25 01:28:45;;;;;;;0.70;0.70;;;21.20;99.90;;;;;;6210839;23;20221;-78
2021/06/25 01:31:12;;;;;;;0.88;0.70;;;21.20;99.90;;;;;;6211357;23;20178;-79
2021/06/25 01:33:40;;;;;;;0.88;0.80;;;21.10;99.90;;;;;;6209585;23;20198;-77
2021/06/25 01:36:08;;;;;;;0.60;0.60;;;21.10;99.90;;;;;;6212061;23;20171;-78
2021/06/25 01:38:37;;;;;;;0.60;0.60;;;21.00;99.90;;;;;;6210934;23;20206;-77
2021/06/25 01:41:05;;;;;;;0.70;0.70;;;21.00;99.90;;;;;;6210572;23;20183;-78
2021/06/25 01:43:33;;;;;;;0.85;0.85;;;21.00;99.90;;;;;;6210919;23;20195;-78
2021/06/25 01:46:00;;;;;;;1.80;0.80;;;20.90;99.90;;;;;;6211497;23;20171;-78
2021/06/25 01:48:27;;;;;;;1.13;0.75;;;20.90;99.90;;;;;;6211258;23;20203;-78
2021/06/25 01:50:55;;;;;;;0.68;0.68;;;20.90;99.90;;;;;;6211686;23;20174;-78
2021/06/25 01:53:24;;;;;;;0.50;0.50;;;20.90;99.90;;;;;;6210965;23;20219;-78
2021/06/25 01:55:52;;;;;;;0.57;0.57;;;20.90;99.90;;;;;;6218111;23;20198;-77
2021/06/25 01:58:21;;;;;;;0.70;0.70;;;20.90;99.90;;;;;;6210997;23;20202;-77
2021/06/25 02:00:55;;;;;;;0.70;0.70;;;20.90;99.90;;;;;;6211014;23;20169;-79
2021/06/25 02:03:22;;;;;;;0.82;0.70;;;20.80;99.90;;;;;;6210405;23;20203;-77
2021/06/25 02:05:49;;;;;;;0.75;0.70;;;20.80;99.90;;;;;;6229307;23;20171;-77
2021/06/25 02:08:16;;;;;;;0.93;0.93;;;20.80;99.90;;;;;;6210764;23;20221;-77
2021/06/25 02:10:43;;;;;;;0.80;0.80;;;20.70;99.90;;;;;;6211180;23;20167;-78
2021/06/25 02:13:12;;;;;;;0.57;0.57;;;20.70;99.90;;;;;;6210385;23;20848;-77
2021/06/25 02:15:39;;;;;;;0.80;0.80;;;20.70;99.90;;;;;;6211334;23;20171;-77
2021/06/25 02:18:06;;;;;;;0.60;0.60;;;20.70;99.90;;;;;;6210659;23;20195;-77
2021/06/25 02:20:34;;;;;;;0.63;0.63;;;20.60;99.90;;;;;;6211248;23;20257;-78
2021/06/25 02:23:01;;;;;;;1.77;0.70;;;20.60;99.90;;;;;;6209717;23;20218;-78
2021/06/25 02:25:28;;;;;;;0.68;0.63;;;20.50;99.90;;;;;;6211518;23;20171;-78
2021/06/25 02:27:55;;;;;;;0.70;0.70;;;20.50;99.90;;;;;;6210723;23;20194;-78
2021/06/25 02:30:24;;;;;;;0.77;0.77;;;20.40;99.90;;;;;;6211281;23;20155;-78
2021/06/25 02:32:51;;;;;;;1.15;0.90;;;20.50;99.90;;;;;;6210813;23;20194;-77
2021/06/25 02:35:18;;;;;;;0.60;0.60;;;20.40;99.90;;;;;;6209685;23;20663;-77
2021/06/25 02:37:46;;;;;;;0.60;0.60;;;20.50;99.90;;;;;;6209207;23;20194;-77
2021/06/25 02:40:15;;;;;;;0.88;0.52;;;20.50;99.90;;;;;;6212009;23;20475;-79
2021/06/25 02:42:42;;;;;;;0.52;0.52;;;20.50;99.90;;;;;;6233568;23;20213;-77
2021/06/25 02:45:10;;;;;;;0.70;0.70;;;20.60;99.90;;;;;;6212643;23;20171;-77
2021/06/25 02:47:39;;;;;;;0.75;0.65;;;20.60;99.90;;;;;;6210680;23;20195;-77
2021/06/25 02:50:08;;;;;;;0.70;0.70;;;20.60;99.90;;;;;;6210790;23;20175;-77
2021/06/25 02:52:37;;;;;;;0.82;0.70;;;20.60;99.90;;;;;;6209646;23;20182;-77
2021/06/25 02:55:05;;;;;;;0.75;0.70;;;20.50;99.90;;;;;;6228079;23;20193;-77
2021/06/25 02:57:32;;;;;;;0.70;0.65;;;20.50;99.90;;;;;;6210438;23;20187;-78
2021/06/25 02:59:59;;;;;;;0.77;0.60;;;20.50;99.90;;;;;;6210461;23;20171;-78
2021/06/25 03:02:26;;;;;;;0.60;0.60;;;20.40;99.90;;;;;;6209125;23;20182;-78
2021/06/25 03:04:55;;;;;;;0.70;0.70;;;20.40;99.90;;;;;;6211128;23;20170;-78
2021/06/25 03:07:22;;;;;;;0.77;0.75;;;20.40;99.90;;;;;;6209587;23;20236;-77
2021/06/25 03:09:49;;;;;;;0.80;0.80;;;20.40;99.90;;;;;;6210870;23;20503;-78
2021/06/25 03:12:16;;;;;;;0.60;0.60;;;20.40;99.90;;;;;;6210114;23;20179;-78
2021/06/25 03:14:43;;;;;;;0.60;0.60;;;20.40;99.90;;;;;;6209615;23;20270;-78
2021/06/25 03:17:10;;;;;;;0.65;0.65;;;20.40;99.90;;;;;;6209567;23;20174;-78
2021/06/25 03:19:38;;;;;;;1.27;0.80;;;20.40;99.90;;;;;;6209907;23;20206;-78
2021/06/25 03:22:07;;;;;;;0.60;0.50;;;20.30;99.90;;;;;;6208728;23;20170;-77
2021/06/25 03:24:34;;;;;;;0.60;0.60;;;20.30;99.90;;;;;;6209926;23;20203;-78
2021/06/25 03:27:02;;;;;;;0.60;0.60;;;20.30;99.90;;;;;;6212362;23;20194;-77
2021/06/25 03:29:29;;;;;;;0.60;0.60;;;20.30;99.90;;;;;;6215142;23;20220;-77
2021/06/25 03:31:56;;;;;;;0.82;0.70;;;20.20;99.90;;;;;;6209626;23;20171;-77
2021/06/25 03:34:23;;;;;;;0.60;0.60;;;20.20;99.90;;;;;;6209433;23;20201;-77
2021/06/25 03:36:50;;;;;;;0.50;0.50;;;20.20;99.90;;;;;;6210376;23;20527;-77
2021/06/25 03:39:19;;;;;;;0.50;0.50;;;20.10;99.90;;;;;;6209887;23;20199;-79
2021/06/25 03:41:46;;;;;;;1.15;0.57;;;20.10;99.90;;;;;;6210704;23;20646;-78
2021/06/25 03:44:13;;;;;;;0.85;0.70;;;20.10;99.90;;;;;;6215938;23;20213;-79
2021/06/25 03:46:40;;;;;;;0.65;0.65;;;20.10;99.90;;;;;;6218932;23;20159;-77
2021/06/25 03:49:07;;;;;;;0.82;0.75;;;20.10;99.90;;;;;;6210608;23;20205;-78
2021/06/25 03:51:35;;;;;;;0.82;0.63;;;20.20;99.90;;;;;;6212676;23;20293;-78
2021/06/25 03:54:03;;;;;;;0.70;0.70;;;20.20;99.90;;;;;;6212613;23;20221;-78
2021/06/25 03:56:31;;;;;;;0.57;0.57;;;20.30;99.90;;;;;;6213452;23;20301;-79
2021/06/25 03:58:58;;;;;;;0.70;0.70;;;20.30;99.90;;;;;;6213474;23;20213;-78
2021/06/25 04:01:25;;;;;;;0.60;0.60;;;20.40;99.90;;;;;;6212751;23;20173;-78
2021/06/25 04:03:52;;;;;;;0.60;0.60;;;20.40;99.90;;;;;;6212970;23;20221;-78
2021/06/25 04:06:20;;;;;;;0.70;0.70;;;20.50;99.90;;;;;;6214193;23;20170;-78
2021/06/25 04:08:48;;;;;;;0.60;0.60;;;20.60;99.90;;;;;;6214092;23;20206;-78
2021/06/25 04:11:17;;;;;;;0.60;0.60;;;20.60;99.90;;;;;;6214086;23;20233;-78
2021/06/25 04:13:46;;;;;;;0.57;0.57;;;20.60;99.90;;;;;;6224696;23;20199;-79
2021/06/25 04:16:13;;;;;;;2.30;0.88;;;20.70;99.90;;;;;;6229241;23;20167;-78
2021/06/25 04:18:40;;;;;;;0.70;0.70;;;20.70;99.90;;;;;;6215168;23;20221;-77
2021/06/25 04:21:08;;;;;;;0.60;0.60;;;20.70;99.90;;;;;;6214672;23;20178;-77
2021/06/25 04:23:35;;;;;;;0.50;0.50;;;20.50;99.90;;;;;;6214381;23;20226;-78
2021/06/25 04:26:02;;;;;;;1.10;0.70;;;20.30;99.90;;;;;;6214378;23;20167;-78
2021/06/25 04:28:29;;;;;;;0.52;0.52;;;20.20;99.90;;;;;;6212171;23;20682;-78
2021/06/25 04:30:58;;;;;;;0.80;0.80;;;20.20;99.90;;;;;;6214435;23;20548;-78
2021/06/25 04:33:25;;;;;;;0.73;0.70;;;20.30;99.90;;;;;;6214956;23;20274;-78
2021/06/25 04:35:54;;;;;;;1.20;0.77;;;20.30;99.90;;;;;;6227008;23;20172;-77
2021/06/25 04:38:21;;;;;;;0.70;0.70;;;20.40;99.90;;;;;;6214476;23;20265;-78
2021/06/25 04:40:48;;;;;;;0.93;0.70;;;20.40;99.90;;;;;;6213170;23;20166;-78
2021/06/25 04:43:17;;;;;;;0.70;0.70;;;20.50;99.90;;;;;;6212052;23;20206;-78
2021/06/25 04:45:45;;;;;;;0.50;0.50;;;20.60;99.90;;;;;;6214048;23;20170;-78
2021/06/25 04:48:15;;;;;;;0.70;0.70;;;20.60;99.90;;;;;;6213360;23;20217;-78
2021/06/25 04:50:43;;;;;;;0.80;0.80;;;20.60;99.90;;;;;;6213175;23;20178;-77
2021/06/25 04:53:10;;;;;;;0.70;0.70;;;20.70;99.90;;;;;;6213469;23;20191;-78
2021/06/25 04:55:42;;;;;;;2.05;0.85;;;20.80;99.90;;;;;;6214786;23;20178;-78
2021/06/25 04:58:10;;;;;;;0.70;0.70;;;20.80;99.90;;;;;;6214708;23;20265;-76
2021/06/25 05:00:37;;;;;;;0.77;0.77;;;20.80;99.90;;;;;;6221550;23;20177;-77
2021/06/25 05:03:05;;;;;;;0.80;0.70;;;20.80;99.90;;;;;;6214911;23;20202;-78
2021/06/25 05:05:34;;;;;;;1.30;0.60;;;20.90;99.90;;;;;;6213574;23;20178;-78
2021/06/25 05:08:01;;;;;;;1.60;0.68;;;21.00;99.90;;;;;;6214176;23;20191;-79
2021/06/25 05:10:28;;;;;;;0.93;0.93;;;21.00;99.90;;;;;;6215009;23;20171;-78
2021/06/25 05:12:55;;;;;;;2.25;0.90;;;21.10;99.90;;;;;;6213598;23;20170;-77
2021/06/25 05:15:22;;;;;;;1.42;0.73;;;21.20;99.90;;;;;;6212768;23;20186;-78
2021/06/25 05:17:50;;;;;;;1.75;0.77;;;21.10;99.90;;;;;;6212974;23;20190;-77
2021/06/25 05:20:18;;;;;;;1.92;0.75;;;21.10;99.90;;;;;;6214256;23;20178;-77
2021/06/25 05:22:47;;;;;;;0.80;0.80;;;21.20;99.90;;;;;;6212912;23;20167;-77
2021/06/25 05:25:15;;;;;;;1.85;0.95;;;21.30;99.90;;;;;;6228082;23;20674;-79
2021/06/25 05:27:43;;;;;;;0.88;0.88;;;21.40;99.90;;;;;;6214750;23;20195;-77
2021/06/25 05:30:11;;;;;;;0.75;0.75;;;21.30;99.90;;;;;;6212315;23;20872;-79
2021/06/25 05:32:38;;;;;;;1.15;0.90;;;21.30;99.90;;;;;;6213010;23;20171;-80
2021/06/25 05:35:06;;;;;;;1.00;0.90;;;21.40;99.90;;;;;;6213187;23;20202;-79
2021/06/25 05:37:33;;;;;;;0.80;0.80;;;21.40;99.90;;;;;;6216530;23;20187;-79
2021/06/25 05:40:02;;;;;;;2.25;1.10;;;21.30;99.90;;;;;;6216212;23;20194;-80
2021/06/25 05:42:29;;;;;;;0.88;0.88;;;21.40;99.90;;;;;;6217129;23;20167;-79
2021/06/25 05:44:56;;;;;;;1.25;1.05;;;21.60;99.90;;;;;;6216954;23;20205;-79
2021/06/25 05:47:23;;;;;;;1.60;1.10;;;21.50;99.90;;;;;;6238497;23;20163;-78
2021/06/25 05:49:50;;;;;;;1.20;1.10;;;21.40;99.90;;;;;;6222902;23;20223;-77
2021/06/25 05:52:18;;;;;;;1.67;1.23;;;21.30;99.90;;;;;;6217809;23;20185;-78
2021/06/25 05:54:45;;;;;;;1.30;1.20;;;21.40;99.90;;;;;;6217201;23;20205;-77
2021/06/25 05:57:13;;;;;;;1.52;1.40;;;21.50;99.90;;;;;;6218480;23;20178;-78
2021/06/25 05:59:40;;;;;;;1.30;1.17;;;21.40;99.90;;;;;;6219030;23;20202;-77
2021/06/25 06:02:08;;;;;;;1.50;1.30;;;21.30;99.90;;;;;;6219930;23;20550;-77
2021/06/25 06:04:35;;;;;;;2.05;1.20;;;21.30;99.90;;;;;;6214126;23;20538;-76
2021/06/25 06:07:03;;;;;;;1.40;1.30;;;21.30;99.90;;;;;;6215969;23;20174;-78
2021/06/25 06:09:30;;;;;;;1.63;1.30;;;21.30;99.90;;;;;;6214853;23;20233;-76
2021/06/25 06:11:57;;;;;;;2.17;1.35;;;21.30;99.90;;;;;;6213842;23;20167;-77
2021/06/25 06:14:26;;;;;;;2.00;1.23;;;21.30;99.90;;;;;;6213861;23;20206;-78
2021/06/25 06:16:53;;;;;;;1.83;1.20;;;21.40;99.90;;;;;;6219281;23;20163;-78
2021/06/25 06:19:20;;;;;;;1.30;1.20;;;21.70;99.90;;;;;;6213415;23;20199;-77
2021/06/25 06:32:55;;;;;;;2.28;1.50;;;22.00;99.90;;;;;;6217647;23;20158;-79
2021/06/25 06:35:22;;;;;;;2.35;1.30;;;22.10;99.90;;;;;;6215716;23;20294;-79
2021/06/25 06:37:51;;;;;;;2.67;1.30;;;22.10;99.90;;;;;;6213981;23;20187;-78
2021/06/25 06:40:20;;;;;;;2.05;1.27;;;22.20;99.90;;;;;;6213509;23;20253;-79
2021/06/25 06:42:47;;;;;;;2.97;1.60;;;22.40;99.90;;;;;;6210777;23;20644;-78
2021/06/25 06:45:17;;;;;;;1.95;1.38;;;22.40;99.90;;;;;;6210846;23;20205;-77
2021/06/25 06:47:45;;;;;;;1.55;1.35;;;22.50;99.90;;;;;;6210389;23;20526;-76
2021/06/25 06:50:13;;;;;;;1.33;0.90;;;22.70;99.90;;;;;;6207685;23;20195;-78
2021/06/25 06:52:44;;;;;;;1.73;1.17;;;23.00;99.90;;;;;;6211932;23;20174;-77
2021/06/25 06:55:13;;;;;;;0.98;0.98;;;23.10;99.90;;;;;;6209898;23;20194;-77
2021/06/25 06:57:40;;;;;;;1.40;1.05;;;23.30;99.90;;;;;;6211275;23;20210;-78
2021/06/25 07:00:09;;;;;;;1.10;1.00;;;23.40;99.90;;;;;;6210000;23;20198;-78
2021/06/25 07:02:39;;;;;;;0.80;0.80;;;23.60;99.90;;;;;;6211948;23;20166;-77
2021/06/25 07:05:07;;;;;;;1.65;1.30;;;23.80;99.90;;;;;;6216002;23;20250;-79
2021/06/25 07:07:35;;;;;;;1.20;1.13;;;23.80;99.90;;;;;;6219971;23;20187;-77
2021/06/25 07:10:03;;;;;;;1.58;0.90;;;23.90;99.90;;;;;;6209115;23;20207;-76
2021/06/25 07:12:30;;;;;;;2.90;1.05;;;23.80;99.90;;;;;;6209555;23;20171;-77
2021/06/25 07:14:57;;;;;;;1.27;1.10;;;23.60;99.90;;;;;;6207864;23;20693;-77
2021/06/25 07:17:24;;;;;;;1.55;0.90;;;23.50;99.90;;;;;;6210926;23;20174;-76
2021/06/25 07:19:53;;;;;;;1.60;1.00;;;23.60;99.90;;;;;;6236987;22;20194;-79
2021/06/25 07:22:20;;;;;;;1.10;1.00;;;23.60;99.90;;;;;;6213791;23;20174;-78
2021/06/25 07:24:47;;;;;;;3.05;1.00;;;23.60;99.90;;;;;;6211147;23;20694;-78
2021/06/25 07:27:14;;;;;;;1.83;1.02;;;23.90;99.90;;;;;;6212482;23;20175;-76
2021/06/25 07:29:43;;;;;;;0.93;0.85;;;24.10;99.90;;;;;;6212963;23;20582;-79
2021/06/25 07:32:10;;;;;;;1.48;0.98;;;24.40;99.90;;;;;;6210028;23;20258;-76
2021/06/25 07:34:37;;;;;;;0.80;0.80;;;24.40;99.90;;;;;;6209179;23;20527;-77
2021/06/25 07:37:06;;;;;;;1.33;1.05;;;24.40;99.90;;;;;;6210785;23;20493;-77
2021/06/25 07:39:33;;;;;;;1.60;1.10;;;24.20;99.90;;;;;;6209940;23;20199;-78
2021/06/25 07:42:00;;;;;;;1.55;1.20;;;24.10;99.90;;;;;;6208797;23;20174;-78
2021/06/25 07:44:27;;;;;;;1.75;0.90;;;24.10;99.90;;;;;;6208434;23;20229;-78
2021/06/25 07:46:54;;;;;;;2.03;1.17;;;24.20;99.90;;;;;;6209903;23;20174;-78
2021/06/25 07:49:22;;;;;;;1.77;0.82;;;24.30;99.90;;;;;;6209765;23;20198;-77
2021/06/25 07:51:49;;;;;;;1.90;1.00;;;24.50;99.90;;;;;;6209840;23;20178;-77
2021/06/25 07:54:18;;;;;;;2.38;1.20;;;24.70;99.90;;;;;;6211380;23;20207;-76
2021/06/25 07:56:45;;;;;;;1.42;0.90;;;24.90;99.90;;;;;;6220180;23;20671;-77
2021/06/25 07:59:12;;;;;;;1.17;1.00;;;24.90;99.90;;;;;;6211146;23;20210;-77
2021/06/25 08:01:39;;;;;;;2.15;1.30;;;25.00;99.90;;;;;;6213157;23;20174;-78
2021/06/25 08:04:06;;;;;;;0.93;0.80;;;25.00;99.90;;;;;;6211269;23;20686;-77
2021/06/25 08:06:33;;;;;;;1.00;0.80;;;25.20;99.90;;;;;;6216510;23;20490;-77
2021/06/25 08:09:04;;;;;;;1.65;1.15;;;25.20;99.90;;;;;;6204959;23;20195;-76
2021/06/25 08:11:32;;;;;;;2.53;1.02;;;25.30;99.90;;;;;;6203287;23;20691;-77
2021/06/25 08:14:00;;;;;;;2.40;1.20;;;25.20;99.90;;;;;;6199873;23;20199;-77
2021/06/25 08:16:27;;;;;;;1.33;1.00;;;25.40;99.90;;;;;;6200872;23;20177;-76
2021/06/25 08:18:57;;;;;;;5.68;1.27;;;25.60;99.90;;;;;;6202767;23;20205;-77
2021/06/25 08:21:25;;;;;;;1.10;1.00;;;25.70;99.90;;;;;;6202973;23;20159;-77
2021/06/25 08:23:52;;;;;;;3.70;1.20;;;25.80;99.90;;;;;;6203664;23;20191;-76
2021/06/25 08:26:19;;;;;;;1.00;0.90;;;25.80;99.90;;;;;;6201609;23;20417;-76
2021/06/25 08:28:48;;;;;;;2.13;1.05;;;25.80;99.90;;;;;;6203650;23;20199;-76
2021/06/25 08:31:16;;;;;;;2.03;1.10;;;25.80;99.90;;;;;;6203101;23;20537;-77
2021/06/25 08:33:43;;;;;;;1.50;1.10;;;26.00;99.90;;;;;;6201335;23;20203;-75
2021/06/25 08:36:11;;;;;;;1.63;1.05;;;25.90;99.90;;;;;;6201106;23;20623;-77
2021/06/25 08:38:38;;;;;;;1.20;0.90;;;26.00;99.90;;;;;;6204049;23;20321;-76
2021/06/25 08:41:06;;;;;;;0.95;0.77;;;26.00;99.90;;;;;;6203631;23;20174;-76
2021/06/25 08:43:34;;;;;;;1.35;0.80;;;25.90;99.90;;;;;;6201491;23;20990;-76
2021/06/25 08:46:02;;;;;;;0.85;0.82;;;26.10;99.90;;;;;;6206338;23;20182;-77
2021/06/25 08:48:30;;;;;;;0.82;0.82;;;26.10;99.90;;;;;;6203777;23;20206;-76
2021/06/25 08:50:58;;;;;;;0.85;0.63;;;26.30;99.90;;;;;;6213270;23;20172;-75
2021/06/25 08:53:25;;;;;;;1.23;0.75;;;26.40;99.90;;;;;;6215379;23;20472;-76
2021/06/25 08:55:53;;;;;;;1.08;0.88;;;26.30;99.90;;;;;;6205556;23;20173;-76
2021/06/25 08:58:22;;;;;;;1.10;0.80;;;26.30;99.90;;;;;;6202353;23;20214;-76
2021/06/25 09:00:50;;;;;;;1.10;0.90;;;26.30;99.90;;;;;;6203005;23;20226;-76
2021/06/25 09:03:23;;;;;;;0.77;0.77;;;26.60;99.90;;;;;;6204082;23;20689;-75
2021/06/25 09:05:50;;;;;;;0.90;0.90;;;26.70;99.90;;;;;;6205872;23;20198;-76
2021/06/25 09:08:28;;;;;;;0.85;0.80;;;26.50;99.90;;;;;;6202457;23;20201;-75
2021/06/25 09:10:58;;;;;;;1.10;0.82;;;26.90;99.90;;;;;;6204827;23;20186;-76
2021/06/25 09:13:34;;;;;;;0.88;0.85;;;27.30;99.90;;;;;;6204678;23;20194;-76
2021/06/25 09:16:02;;;;;;;1.25;0.82;;;27.20;99.90;;;;;;6205300;23;20528;-75
2021/06/25 09:18:30;;;;;;;2.05;1.00;;;27.10;99.90;;;;;;6204282;23;20201;-74
2021/06/25 09:20:58;;;;;;;0.95;0.90;;;26.90;99.90;;;;;;6203423;23;20218;-76
2021/06/25 09:23:34;;;;;;;0.80;0.80;;;27.10;99.90;;;;;;6203720;23;20522;-76
2021/06/25 09:26:06;;;;;;;3.33;0.80;;;27.30;99.90;;;;;;6201209;23;20202;-76
2021/06/25 09:28:37;;;;;;;1.05;0.93;;;27.30;99.90;;;;;;6205412;23;20198;-76
2021/06/25 09:31:12;;;;;;;0.80;0.80;;;27.20;99.90;;;;;;6204319;23;20190;-75
2021/06/25 09:33:45;;;;;;;0.70;0.70;;;27.30;99.90;;;;;;6206949;23;20159;-76
2021/06/25 09:36:24;;;;;;;1.65;0.70;;;27.40;99.90;;;;;;6211555;23;20199;-76
2021/06/25 09:38:58;;;;;;;1.35;0.90;;;27.30;99.90;;;;;;6213235;23;20186;-76
2021/06/25 09:41:26;;;;;;;1.33;0.93;;;27.50;99.90;;;;;;6202020;23;20156;-76
2021/06/25 09:43:55;;;;;;;0.90;0.90;;;27.70;99.90;;;;;;6206315;23;20927;-76
2021/06/25 09:46:27;;;;;;;0.95;0.68;;;27.90;99.90;;;;;;6206551;23;20175;-75
2021/06/25 09:48:57;;;;;;;2.63;0.85;;;28.30;99.90;;;;;;6207955;23;20191;-75
2021/06/25 09:51:25;;;;;;;1.20;0.98;;;28.70;99.90;;;;;;6205740;23;20163;-75
2021/06/25 09:54:14;;;;;;;1.25;0.90;;;28.60;99.90;;;;;;6206374;23;20170;-76
2021/06/25 09:56:46;;;;;;;1.63;0.80;;;28.40;99.60;;;;;;6203590;23;20213;-75
2021/06/25 09:59:36;;;;;;;0.70;0.70;;;28.40;99.90;;;;;;6206901;23;20198;-76
2021/06/25 10:02:24;;;;;;;2.08;0.80;;;28.50;99.90;;;;;;6204766;23;20163;-76
2021/06/25 10:04:54;;;;;;;0.60;0.60;;;28.60;99.90;;;;;;6207513;23;20223;-76
2021/06/25 10:07:22;;;;;;;1.13;0.90;;;28.80;99.90;;;;;;6204817;23;20194;-77
2021/06/25 10:09:51;;;;;;;0.80;0.80;;;28.90;99.90;;;;;;6205929;23;20226;-75
2021/06/25 10:12:20;;;;;;;0.73;0.50;;;29.00;99.90;;;;;;6205763;23;20206;-75
2021/06/25 10:14:49;;;;;;;0.60;0.60;;;29.00;99.00;;;;;;6203224;23;20203;-76
2021/06/25 10:17:17;;;;;;;1.05;0.90;;;28.90;98.00;;;;;;6204816;23;20182;-76
2021/06/25 10:19:45;;;;;;;0.75;0.70;;;29.00;97.60;;;;;;6203827;23;20195;-76
2021/06/25 10:22:16;;;;;;;1.08;0.77;;;29.10;97.50;;;;;;6207443;23;20217;-76
2021/06/25 10:24:48;;;;;;;1.00;0.70;;;29.30;96.90;;;;;;6217481;23;20198;-76
2021/06/25 10:27:17;;;;;;;1.15;0.70;;;29.60;96.60;;;;;;6213775;23;20158;-76
2021/06/25 10:29:45;;;;;;;0.50;0.50;;;29.50;96.20;;;;;;6205557;23;20207;-75
2021/06/25 10:32:13;;;;;;;0.73;0.60;;;29.50;95.80;;;;;;6205488;23;20167;-76
2021/06/25 10:34:42;;;;;;;0.40;0.40;;;29.40;94.70;;;;;;6201752;23;20729;-76
2021/06/25 10:37:14;;;;;;;0.43;0.40;;;29.40;94.20;;;;;;6204567;23;20171;-76
2021/06/25 10:39:42;;;;;;;0.60;0.60;;;29.60;93.50;;;;;;6200434;23;20609;-76
2021/06/25 10:42:11;;;;;;;0.70;0.70;;;29.80;93.10;;;;;;6207132;23;20235;-75
2021/06/25 10:44:42;;;;;;;0.60;0.60;;;29.70;92.30;;;;;;6206249;23;20226;-76
2021/06/25 10:47:23;;;;;;;0.50;0.50;;;29.60;93.20;;;;;;6204591;23;20230;-76
2021/06/25 10:50:30;;;;;;;0.60;0.60;;;29.70;92.40;;;;;;6205013;23;20209;-76
2021/06/25 10:53:16;;;;;;;0.50;0.50;;;29.90;92.60;;;;;;6205356;23;20580;-77
2021/06/25 10:56:01;;;;;;;0.50;0.50;;;30.00;91.40;;;;;;6203439;23;20257;-78
2021/06/25 10:58:28;;;;;;;1.13;0.70;;;29.90;92.80;;;;;;6204970;23;20666;-78
2021/06/25 11:00:59;;;;;;;0.93;0.35;;;30.20;93.30;;;;;;6202470;23;20198;-79
2021/06/25 11:03:38;;;;;;;0.47;0.47;;;30.20;92.50;;;;;;6203953;23;20167;-77
2021/06/25 11:06:09;;;;;;;0.82;0.70;;;30.40;92.00;;;;;;6202788;23;20599;-78
2021/06/25 11:08:36;;;;;;;0.60;0.60;;;30.50;92.60;;;;;;6203446;23;20710;-78
2021/06/25 11:11:05;;;;;;;0.68;0.60;;;30.40;92.10;;;;;;6209223;23;20290;-78
2021/06/25 11:13:35;;;;;;;0.77;0.70;;;30.40;92.10;;;;;;6213410;23;20694;-78
2021/06/25 11:16:20;;;;;;;0.70;0.60;;;30.60;92.80;;;;;;6206182;23;20260;-78
2021/06/25 11:18:48;;;;;;;0.82;0.52;;;30.70;91.00;;;;;;6206578;23;20198;-76
2021/06/25 11:21:15;;;;;;;1.38;0.60;;;30.70;91.90;;;;;;6205059;23;20317;-77
2021/06/25 11:23:44;;;;;;;3.03;0.70;;;30.50;91.90;;;;;;6203993;23;20546;-77
2021/06/25 11:26:25;;;;;;;0.75;0.75;;;30.50;91.60;;;;;;6208009;23;20209;-78
2021/06/25 11:28:54;;;;;;;0.80;0.70;;;30.40;92.50;;;;;;6213255;23;20201;-78
2021/06/25 11:31:26;;;;;;;1.75;0.70;;;30.40;92.80;;;;;;6207272;23;20222;-79
2021/06/25 11:33:56;;;;;;;0.65;0.60;;;30.30;92.80;;;;;;6211013;23;20363;-77
2021/06/25 11:36:26;;;;;;;1.52;0.82;;;30.20;91.80;;;;;;6201819;23;20249;-77
2021/06/25 11:38:58;;;;;;;1.45;0.90;;;30.20;92.10;;;;;;6200534;23;20290;-75
2021/06/25 11:41:33;;;;;;;0.80;0.80;;;30.10;91.80;;;;;;6203336;23;20207;-77
2021/06/25 11:44:03;;;;;;;0.90;0.68;;;30.20;92.40;;;;;;6203000;23;20197;-77
2021/06/25 11:46:30;;;;;;;0.77;0.77;;;30.30;92.00;;;;;;6202025;23;20306;-77
2021/06/25 11:49:01;;;;;;;1.83;0.80;;;30.30;91.10;;;;;;6202774;23;20265;-77
2021/06/25 11:51:36;;;;;;;1.55;1.00;;;30.40;91.20;;;;;;6200270;23;20286;-76
2021/06/25 11:54:04;;;;;;;3.78;1.00;;;30.40;90.50;;;;;;6204504;23;20184;-76
2021/06/25 11:56:33;;;;;;;1.83;0.90;;;30.40;90.50;;;;;;6203784;23;20203;-77
2021/06/25 11:59:04;;;;;;;1.20;0.75;;;30.40;90.60;;;;;;6204069;23;20202;-78
2021/06/25 12:01:32;;;;;;;1.42;0.80;;;30.40;90.10;;;;;;6200166;23;20199;-77
2021/06/25 12:04:01;;;;;;;2.10;0.98;;;30.30;91.00;;;;;;6203512;23;20708;-77
2021/06/25 12:06:28;;;;;;;2.63;0.98;;;30.40;91.10;;;;;;6203914;23;20227;-77
2021/06/25 12:09:00;;;;;;;1.20;0.80;;;30.50;90.90;;;;;;6206511;23;20190;-80
2021/06/25 12:11:28;;;;;;;1.02;0.90;;;30.40;90.50;;;;;;6205419;23;20233;-78
2021/06/25 12:14:06;;;;;;;1.08;0.90;;;30.40;90.80;;;;;;6210464;23;20167;-78
2021/06/25 12:16:38;;;;;;;0.80;0.80;;;30.10;91.00;;;;;;6209359;23;20488;-78
2021/06/25 12:19:10;;;;;;;1.15;0.93;;;30.10;91.20;;;;;;6209296;23;20199;-78
2021/06/25 12:21:38;;;;;;;2.55;0.90;;;30.20;90.90;;;;;;6208172;23;20190;-77
2021/06/25 12:24:07;;;;;;;1.20;0.90;;;30.30;90.60;;;;;;6207711;23;20167;-78
2021/06/25 12:26:34;;;;;;;2.15;0.90;;;30.40;91.80;;;;;;6210586;23;20198;-78
2021/06/25 12:29:04;;;;;;;1.23;0.80;;;30.60;90.90;;;;;;6209978;23;20209;-78
2021/06/25 12:31:34;;;;;;;1.17;0.80;;;30.70;90.90;;;;;;6210950;23;20282;-77
2021/06/25 12:34:07;;;;;;;1.20;0.90;;;30.80;90.80;;;;;;6209157;23;20229;-80
2021/06/25 12:36:36;;;;;;;1.40;0.90;;;30.70;90.50;;;;;;6208663;23;20576;-78
2021/06/25 12:39:06;;;;;;;1.50;1.08;;;30.60;91.40;;;;;;6207687;23;20659;-77
2021/06/25 12:41:40;;;;;;;2.85;0.80;;;30.50;90.20;;;;;;6207578;23;20203;-78
2021/06/25 12:44:09;;;;;;;2.95;0.88;;;30.60;91.30;;;;;;6207290;23;20191;-78
2021/06/25 12:46:37;;;;;;;2.13;0.90;;;30.40;90.90;;;;;;6207817;23;20574;-78
2021/06/25 12:49:06;;;;;;;1.52;0.90;;;30.10;91.60;;;;;;6203552;23;20201;-79
2021/06/25 12:51:35;;;;;;;3.65;1.10;;;29.80;91.90;;;;;;6208307;23;20207;-78
2021/06/25 12:54:03;;;;;;;1.95;1.00;;;29.50;92.00;;;;;;6208619;23;20635;-78
2021/06/25 12:56:35;;;;;;;2.35;1.17;;;29.10;92.10;;;;;;6206326;23;20206;-78
2021/06/25 12:59:05;;;;;;;2.40;1.02;;;29.10;92.50;;;;;;6210598;23;20194;-78
2021/06/25 13:01:37;;;;;;;3.38;0.90;;;29.30;92.10;;;;;;6208598;23;20195;-78
2021/06/25 13:04:18;;;;;;;2.30;1.10;;;29.10;92.30;;;;;;6211313;23;20170;-77
2021/06/25 13:06:48;;;;;;;1.77;1.10;;;29.00;92.70;;;;;;6208454;23;20265;-78